Time;durP1;ratioP1;P1;durP2;ratioP2;P2;SDS_P1;SDS_P2;PMS_P1;PMS_P2;Temp;Humidity;BMP_temperature;BMP_pressure;BME280_temperature;BME280_humidity;BME280_pressure;Samples;Min_cycle;Max_cycle;Signal;HPM_P1;HPM_P2
2021/06/15 06:18:41;;;;;;;3.72;1.80;;;;;;;;;;5049126;28;20372;-69
2021/06/15 06:21:11;;;;;;;4.82;1.88;;;;;;;;;;5058885;28;20744;-70
2021/06/15 06:23:37;;;;;;;4.07;1.88;;;;;;;;;;5060113;28;20510;-67
2021/06/15 06:26:03;;;;;;;3.40;1.30;;;;;;;;;;5067008;28;20056;-67
2021/06/15 06:28:28;;;;;;;4.55;1.77;;;;;;;;;;5052431;28;20017;-67
2021/06/15 06:30:54;;;;;;;2.13;1.48;;;;;;;;;;5061664;28;20025;-68
2021/06/15 06:33:19;;;;;;;4.88;1.40;;;;;;;;;;5063710;28;20071;-69
2021/06/15 06:35:45;;;;;;;4.93;2.00;;;;;;;;;;5062789;28;20519;-67
2021/06/15 06:38:10;;;;;;;7.88;2.35;;;;;;;;;;5063526;28;20025;-66
2021/06/15 06:40:35;;;;;;;2.65;1.35;;;;;;;;;;5063223;28;20523;-68
2021/06/15 06:43:01;;;;;;;5.30;2.08;;;;;;;;;;5060789;28;20029;-67
2021/06/15 06:45:27;;;;;;;5.63;1.40;;;;;;;;;;5059600;28;20025;-68
2021/06/15 06:47:52;;;;;;;2.35;1.17;;;;;;;;;;5063211;28;20449;-67
2021/06/15 06:50:18;;;;;;;5.18;1.42;;;;;;;;;;5063476;28;20078;-68
2021/06/15 06:52:43;;;;;;;6.55;1.40;;;;;;;;;;5063146;28;20317;-69
2021/06/15 06:55:09;;;;;;;8.30;1.70;;;;;;;;;;5059645;28;20429;-67
2021/06/15 06:57:34;;;;;;;2.05;1.30;;;;;;;;;;5060654;28;20029;-69
2021/06/15 07:00:00;;;;;;;2.58;1.33;;;;;;;;;;5061587;28;20486;-70
2021/06/15 07:02:26;;;;;;;4.55;1.25;;;;;;;;;;5055114;28;20028;-70
2021/06/15 07:04:51;;;;;;;2.08;1.00;;;;;;;;;;5053607;28;20029;-70
2021/06/15 07:07:17;;;;;;;3.35;1.52;;;;;;;;;;5055274;28;20070;-71
2021/06/15 07:09:42;;;;;;;1.85;1.10;;;;;;;;;;5054325;28;20092;-71
2021/06/15 07:12:08;;;;;;;7.90;1.55;;;;;;;;;;5048963;28;20029;-67
2021/06/15 07:14:33;;;;;;;3.78;1.58;;;;;;;;;;5051749;28;20536;-69
2021/06/15 07:16:59;;;;;;;5.60;1.30;;;;;;;;;;5055555;28;20049;-68
2021/06/15 07:19:24;;;;;;;2.13;1.30;;;;;;;;;;5054446;28;20016;-69
2021/06/15 07:21:49;;;;;;;4.10;1.10;;;;;;;;;;5053337;28;20058;-69
2021/06/15 07:24:15;;;;;;;1.25;1.10;;;;;;;;;;5051279;28;20104;-70
2021/06/15 07:26:40;;;;;;;4.22;1.23;;;;;;;;;;5055612;28;20024;-70
2021/06/15 07:29:05;;;;;;;1.50;1.08;;;;;;;;;;5046305;28;20095;-66
2021/06/15 07:31:31;;;;;;;5.80;1.65;;;;;;;;;;5042233;28;20013;-65
2021/06/15 07:33:57;;;;;;;2.90;1.05;;;;;;;;;;5043030;28;20029;-64
2021/06/15 07:36:22;;;;;;;4.75;1.35;;;;;;;;;;5031528;28;20017;-64
2021/06/15 07:38:50;;;;;;;4.43;1.33;;;;;;;;;;5032097;28;20041;-63
2021/06/15 07:41:16;;;;;;;3.63;1.23;;;;;;;;;;5032595;28;20630;-63
2021/06/15 07:43:41;;;;;;;2.88;1.08;;;;;;;;;;5035884;28;20274;-65
2021/06/15 07:46:06;;;;;;;2.10;1.10;;;;;;;;;;5049177;28;20017;-64
2021/06/15 07:48:32;;;;;;;5.50;1.42;;;;;;;;;;5048637;28;20017;-62
2021/06/15 07:50:57;;;;;;;1.25;1.13;;;;;;;;;;5047270;28;20028;-64
2021/06/15 07:53:22;;;;;;;2.72;1.20;;;;;;;;;;5033580;28;20025;-63
2021/06/15 07:55:48;;;;;;;1.80;1.20;;;;;;;;;;5047951;28;20107;-63
2021/06/15 07:58:13;;;;;;;4.00;1.10;;;;;;;;;;5048374;28;20071;-63
2021/06/15 08:00:39;;;;;;;2.78;1.10;;;;;;;;;;5031586;28;20508;-63
2021/06/15 08:03:04;;;;;;;2.05;1.00;;;;;;;;;;5037745;28;20026;-65
2021/06/15 08:05:31;;;;;;;3.53;1.00;;;;;;;;;;5037851;28;20096;-65
2021/06/15 08:07:57;;;;;;;2.70;1.15;;;;;;;;;;5036131;28;20052;-65
2021/06/15 08:10:23;;;;;;;1.60;1.20;;;;;;;;;;5035538;28;20055;-63
2021/06/15 08:12:49;;;;;;;1.13;0.82;;;;;;;;;;5032811;28;20067;-61
2021/06/15 08:15:19;;;;;;;2.80;1.20;;;;;;;;;;5036761;28;20021;-60
2021/06/15 08:17:45;;;;;;;4.90;1.05;;;;;;;;;;5038114;28;20450;-68
2021/06/15 08:20:12;;;;;;;1.92;0.88;;;;;;;;;;5030466;28;20016;-68
2021/06/15 08:22:37;;;;;;;1.08;0.95;;;;;;;;;;5034961;28;20029;-68
2021/06/15 08:25:04;;;;;;;1.42;1.13;;;;;;;;;;5047500;28;20030;-70
2021/06/15 08:27:30;;;;;;;4.30;1.08;;;;;;;;;;5044799;28;20024;-71
2021/06/15 08:29:55;;;;;;;4.18;1.10;;;;;;;;;;5043810;28;20022;-71
2021/06/15 08:32:22;;;;;;;5.28;1.25;;;;;;;;;;5048778;28;20012;-73
2021/06/15 08:34:47;;;;;;;2.58;0.85;;;;;;;;;;5041226;28;20021;-67
2021/06/15 08:37:13;;;;;;;1.65;0.93;;;;;;;;;;5036796;28;20025;-66
2021/06/15 08:39:38;;;;;;;4.70;1.45;;;;;;;;;;5033153;28;20024;-70
2021/06/15 08:42:04;;;;;;;17.88;1.60;;;;;;;;;;5032277;28;20013;-70
2021/06/15 08:44:29;;;;;;;2.90;1.35;;;;;;;;;;5033489;28;20017;-72
2021/06/15 08:46:55;;;;;;;2.70;0.90;;;;;;;;;;5036666;28;20025;-71
2021/06/15 08:49:20;;;;;;;3.38;1.08;;;;;;;;;;5033621;28;20094;-69
2021/06/15 08:51:46;;;;;;;1.42;1.00;;;;;;;;;;5032640;28;20033;-70
2021/06/15 08:54:20;;;;;;;2.72;0.93;;;;;;;;;;5037095;28;20439;-66
2021/06/15 08:56:46;;;;;;;1.40;0.75;;;;;;;;;;5040171;28;20029;-66
2021/06/15 08:59:18;;;;;;;8.50;1.25;;;;;;;;;;5043861;28;20039;-67
2021/06/15 09:01:44;;;;;;;3.75;1.13;;;;;;;;;;5044122;28;20025;-67
2021/06/15 09:04:10;;;;;;;3.42;1.15;;;;;;;;;;5041239;28;20049;-66
2021/06/15 09:06:35;;;;;;;1.33;0.90;;;;;;;;;;5031609;28;20098;-67
2021/06/15 09:09:01;;;;;;;2.78;0.93;;;;;;;;;;5034445;28;20036;-67
2021/06/15 09:11:27;;;;;;;3.50;1.00;;;;;;;;;;5031187;28;20704;-67
2021/06/15 09:13:53;;;;;;;2.85;1.10;;;;;;;;;;5036848;28;20028;-69
2021/06/15 09:16:26;;;;;;;2.95;1.48;;;;;;;;;;5034474;28;20018;-67
2021/06/15 09:18:54;;;;;;;3.45;1.10;;;;;;;;;;5027384;28;20022;-67
2021/06/15 09:21:38;;;;;;;1.55;1.02;;;;;;;;;;5025839;28;20492;-68
2021/06/15 09:24:04;;;;;;;4.15;1.00;;;;;;;;;;5027491;28;20086;-67
2021/06/15 09:26:50;;;;;;;1.90;0.82;;;;;;;;;;5024006;28;20057;-68
2021/06/15 09:29:16;;;;;;;1.38;1.00;;;;;;;;;;5026486;28;20432;-69
2021/06/15 09:31:50;;;;;;;7.05;0.98;;;;;;;;;;5048643;28;20367;-68
2021/06/15 09:34:15;;;;;;;2.50;1.00;;;;;;;;;;5032009;28;20444;-67
2021/06/15 09:36:43;;;;;;;1.27;0.90;;;;;;;;;;5032254;28;20117;-68
2021/06/15 09:39:09;;;;;;;3.38;1.00;;;;;;;;;;5031158;28;20075;-68
2021/06/15 09:41:42;;;;;;;1.65;1.00;;;;;;;;;;5030690;28;20014;-68
2021/06/15 09:44:11;;;;;;;1.08;0.77;;;;;;;;;;5031220;28;20100;-67
2021/06/15 09:46:44;;;;;;;11.88;1.35;;;;;;;;;;5040983;28;20028;-67
2021/06/15 09:49:12;;;;;;;2.83;1.00;;;;;;;;;;5050520;28;20053;-68
2021/06/15 09:51:37;;;;;;;1.53;0.90;;;;;;;;;;5042219;28;20035;-68
2021/06/15 09:54:03;;;;;;;1.67;1.02;;;;;;;;;;5029469;28;20108;-67
2021/06/15 09:56:28;;;;;;;1.73;0.95;;;;;;;;;;5035553;28;20046;-67
2021/06/15 09:58:55;;;;;;;1.55;0.75;;;;;;;;;;5033069;28;20078;-67
2021/06/15 10:01:33;;;;;;;3.03;1.00;;;;;;;;;;5041310;28;20096;-68
2021/06/15 10:04:18;;;;;;;3.45;1.02;;;;;;;;;;5050067;28;20059;-67
2021/06/15 10:06:45;;;;;;;1.48;0.90;;;;;;;;;;5048772;28;20043;-67
2021/06/15 10:09:10;;;;;;;3.88;1.20;;;;;;;;;;5043262;28;20059;-67
2021/06/15 10:11:36;;;;;;;1.33;0.90;;;;;;;;;;5038340;28;20053;-67
2021/06/15 10:14:03;;;;;;;1.67;1.17;;;;;;;;;;5037558;28;20025;-67
2021/06/15 10:16:28;;;;;;;2.97;0.90;;;;;;;;;;5039395;28;20465;-69
2021/06/15 10:18:54;;;;;;;1.83;0.82;;;;;;;;;;5038418;28;20032;-67
2021/06/15 10:21:19;;;;;;;2.33;1.30;;;;;;;;;;5044041;28;20110;-68
2021/06/15 10:23:45;;;;;;;3.03;1.08;;;;;;;;;;5042557;28;20544;-67
2021/06/15 10:26:11;;;;;;;1.55;0.80;;;;;;;;;;5044382;28;20381;-67
2021/06/15 10:28:37;;;;;;;1.45;0.82;;;;;;;;;;5045121;28;20022;-67
2021/06/15 10:31:02;;;;;;;2.35;0.88;;;;;;;;;;5050708;28;20040;-67
2021/06/15 10:33:40;;;;;;;4.53;0.93;;;;;;;;;;5044237;28;20114;-67
2021/06/15 10:36:05;;;;;;;4.20;0.80;;;;;;;;;;5050395;28;20087;-67
2021/06/15 10:38:40;;;;;;;2.08;0.90;;;;;;;;;;5043140;28;20025;-69
2021/06/15 10:41:05;;;;;;;3.20;0.95;;;;;;;;;;5033545;28;20014;-66
2021/06/15 10:43:42;;;;;;;3.55;1.23;;;;;;;;;;5040303;28;20028;-67
2021/06/15 10:46:20;;;;;;;5.10;1.00;;;;;;;;;;5043732;28;20013;-68
2021/06/15 10:48:47;;;;;;;4.05;1.30;;;;;;;;;;5041800;28;20017;-67
2021/06/15 10:51:22;;;;;;;6.20;1.23;;;;;;;;;;5039823;28;20027;-68
2021/06/15 10:53:48;;;;;;;4.00;1.20;;;;;;;;;;5043130;28;20473;-67
2021/06/15 10:56:18;;;;;;;4.38;1.42;;;;;;;;;;5043787;28;20036;-68
2021/06/15 10:58:54;;;;;;;2.30;1.27;;;;;;;;;;5037129;28;20520;-67
2021/06/15 11:01:21;;;;;;;2.08;1.10;;;;;;;;;;5037438;28;20009;-69
2021/06/15 11:03:49;;;;;;;1.02;0.90;;;;;;;;;;5032914;28;20031;-69
2021/06/15 11:06:15;;;;;;;2.65;1.10;;;;;;;;;;5037463;28;20104;-68
2021/06/15 11:08:41;;;;;;;1.48;0.98;;;;;;;;;;5043556;28;20447;-69
2021/06/15 11:11:19;;;;;;;5.68;1.23;;;;;;;;;;5039807;28;20013;-69
2021/06/15 11:13:49;;;;;;;2.92;1.20;;;;;;;;;;5039924;28;20025;-70
2021/06/15 11:16:33;;;;;;;1.73;1.23;;;;;;;;;;5035254;28;20055;-68
2021/06/15 11:19:14;;;;;;;1.35;0.93;;;;;;;;;;5031343;28;20168;-70
2021/06/15 11:21:48;;;;;;;5.38;1.40;;;;;;;;;;5041648;28;20043;-67
2021/06/15 11:24:16;;;;;;;4.72;0.98;;;;;;;;;;5041654;28;20014;-69
2021/06/15 11:26:42;;;;;;;2.30;1.10;;;;;;;;;;5042740;28;20113;-67
2021/06/15 11:29:07;;;;;;;2.03;1.10;;;;;;;;;;5045055;28;20088;-68
2021/06/15 11:31:33;;;;;;;4.03;1.33;;;;;;;;;;5042546;28;20119;-68
2021/06/15 11:34:02;;;;;;;2.03;1.35;;;;;;;;;;5041388;28;20473;-70
2021/06/15 11:36:41;;;;;;;0.82;0.82;;;;;;;;;;5041327;28;20439;-67
2021/06/15 11:39:28;;;;;;;4.78;1.13;;;;;;;;;;5036075;28;20028;-69
2021/06/15 11:42:19;;;;;;;3.28;1.08;;;;;;;;;;5032599;28;20096;-74
2021/06/15 11:44:51;;;;;;;3.33;0.88;;;;;;;;;;5043062;28;20037;-73
2021/06/15 11:47:26;;;;;;;2.05;1.17;;;;;;;;;;5031781;28;20014;-72
2021/06/15 11:50:06;;;;;;;3.70;1.50;;;;;;;;;;5030212;28;20024;-73
2021/06/15 11:52:31;;;;;;;2.00;1.00;;;;;;;;;;5046229;28;20099;-72
2021/06/15 11:54:57;;;;;;;1.13;1.00;;;;;;;;;;5041366;28;20526;-73
2021/06/15 11:57:23;;;;;;;4.10;1.52;;;;;;;;;;5040129;28;20037;-72
2021/06/15 11:59:48;;;;;;;2.85;1.17;;;;;;;;;;5045695;28;20017;-70
2021/06/15 12:02:17;;;;;;;2.90;1.60;;;;;;;;;;5045462;28;20039;-72
2021/06/15 12:05:01;;;;;;;5.45;1.60;;;;;;;;;;5039212;28;20032;-73
2021/06/15 12:07:27;;;;;;;3.05;1.50;;;;;;;;;;5041773;28;20531;-71
2021/06/15 12:09:59;;;;;;;4.85;1.40;;;;;;;;;;5038623;28;20017;-72
2021/06/15 12:12:24;;;;;;;5.35;1.55;;;;;;;;;;5039186;28;20056;-70
2021/06/15 12:14:50;;;;;;;4.47;1.45;;;;;;;;;;5042918;28;20026;-73
2021/06/15 12:17:15;;;;;;;2.85;1.30;;;;;;;;;;5043533;28;20036;-73
2021/06/15 12:19:40;;;;;;;3.17;1.40;;;;;;;;;;5038996;28;20022;-70
2021/06/15 12:22:19;;;;;;;3.38;1.02;;;;;;;;;;5041437;28;20056;-70
2021/06/15 12:24:45;;;;;;;2.93;1.40;;;;;;;;;;5040249;28;20473;-70
2021/06/15 12:27:21;;;;;;;3.80;1.55;;;;;;;;;;5044701;28;20016;-71
2021/06/15 12:29:46;;;;;;;4.80;1.33;;;;;;;;;;5041713;28;20025;-70
2021/06/15 12:32:11;;;;;;;3.17;1.48;;;;;;;;;;5041706;28;20370;-73
2021/06/15 12:34:37;;;;;;;4.93;1.25;;;;;;;;;;5040772;28;20021;-73
2021/06/15 12:37:05;;;;;;;3.08;1.35;;;;;;;;;;5043276;28;20032;-71
2021/06/15 12:39:35;;;;;;;4.85;1.50;;;;;;;;;;5043629;28;20411;-69
2021/06/15 12:42:01;;;;;;;5.90;1.98;;;;;;;;;;5040028;28;20458;-73
2021/06/15 12:44:31;;;;;;;4.78;1.73;;;;;;;;;;5040338;28;20049;-71
2021/06/15 12:46:58;;;;;;;3.28;1.75;;;;;;;;;;5043376;28;20458;-75
2021/06/15 12:49:23;;;;;;;6.40;1.63;;;;;;;;;;5042412;28;20036;-74
2021/06/15 12:51:50;;;;;;;4.53;1.50;;;;;;;;;;5036542;28;20582;-73
2021/06/15 12:54:20;;;;;;;5.88;1.40;;;;;;;;;;5038760;28;20477;-75
2021/06/15 12:56:52;;;;;;;2.95;1.40;;;;;;;;;;5036554;28;20470;-72
2021/06/15 12:59:18;;;;;;;2.67;1.35;;;;;;;;;;5036212;28;20536;-74
2021/06/15 13:01:43;;;;;;;7.00;2.15;;;;;;;;;;5037491;28;20044;-74
2021/06/15 13:04:25;;;;;;;1.55;1.30;;;;;;;;;;5039841;28;20021;-75
2021/06/15 13:06:51;;;;;;;1.83;1.33;;;;;;;;;;5037450;28;20017;-76
2021/06/15 13:09:18;;;;;;;6.05;1.30;;;;;;;;;;5035589;28;20022;-75
2021/06/15 13:12:04;;;;;;;3.58;1.20;;;;;;;;;;5023917;28;20519;-68
2021/06/15 13:14:31;;;;;;;5.22;1.75;;;;;;;;;;5040042;28;20063;-74
2021/06/15 13:17:01;;;;;;;3.03;1.48;;;;;;;;;;5041688;28;20131;-74
2021/06/15 13:19:35;;;;;;;3.42;1.30;;;;;;;;;;5037928;28;20167;-70
2021/06/15 13:22:01;;;;;;;4.85;1.45;;;;;;;;;;5038778;28;20516;-73
2021/06/15 13:24:36;;;;;;;5.00;1.45;;;;;;;;;;5037443;28;20025;-73
2021/06/15 13:27:20;;;;;;;8.07;1.75;;;;;;;;;;5032941;28;20040;-73
2021/06/15 13:29:46;;;;;;;5.78;1.30;;;;;;;;;;5033749;28;20018;-73
2021/06/15 13:32:18;;;;;;;4.82;1.35;;;;;;;;;;5036988;28;20434;-73
2021/06/15 13:34:56;;;;;;;6.80;1.40;;;;;;;;;;5034591;28;20021;-73
2021/06/15 13:37:25;;;;;;;2.67;1.40;;;;;;;;;;5043972;28;20036;-73
2021/06/15 13:39:50;;;;;;;4.40;1.42;;;;;;;;;;5052044;28;20147;-72
2021/06/15 13:42:21;;;;;;;3.45;1.58;;;;;;;;;;5044868;28;20104;-71
2021/06/15 13:44:59;;;;;;;3.33;1.38;;;;;;;;;;5042533;28;20016;-72
2021/06/15 13:47:24;;;;;;;10.10;1.65;;;;;;;;;;5036513;28;20017;-71
2021/06/15 13:49:49;;;;;;;8.27;1.85;;;;;;;;;;5041262;28;20017;-72
2021/06/15 13:52:15;;;;;;;7.38;1.45;;;;;;;;;;5034416;28;20508;-71
2021/06/15 13:54:40;;;;;;;2.45;1.30;;;;;;;;;;5038469;28;20022;-72
2021/06/15 13:57:05;;;;;;;12.90;1.60;;;;;;;;;;5035240;28;20017;-73
2021/06/15 13:59:31;;;;;;;2.50;1.23;;;;;;;;;;5033992;28;20026;-72
2021/06/15 14:01:56;;;;;;;3.30;1.30;;;;;;;;;;5042508;28;20029;-73
2021/06/15 14:04:21;;;;;;;4.32;1.42;;;;;;;;;;5044466;28;20071;-74
2021/06/15 14:06:47;;;;;;;12.27;1.73;;;;;;;;;;5042739;28;20465;-74
2021/06/15 14:09:13;;;;;;;12.93;1.90;;;;;;;;;;5041481;28;20021;-74
2021/06/15 14:11:39;;;;;;;4.30;1.38;;;;;;;;;;5043046;28;20078;-72
2021/06/15 14:14:04;;;;;;;3.38;1.40;;;;;;;;;;5039900;28;20025;-70
2021/06/15 14:16:30;;;;;;;5.30;1.27;;;;;;;;;;5034535;28;20402;-71
2021/06/15 14:18:56;;;;;;;10.40;1.80;;;;;;;;;;5031234;28;20025;-74
2021/06/15 14:21:21;;;;;;;6.55;2.33;;;;;;;;;;5032869;28;20416;-74
2021/06/15 14:23:47;;;;;;;5.45;1.42;;;;;;;;;;5031265;28;20018;-74
2021/06/15 14:26:12;;;;;;;7.50;2.00;;;;;;;;;;5028682;28;20014;-74
2021/06/15 14:28:38;;;;;;;2.67;1.45;;;;;;;;;;5042213;28;20017;-71
2021/06/15 14:31:04;;;;;;;3.67;1.50;;;;;;;;;;5036189;28;20026;-73
2021/06/15 14:33:29;;;;;;;5.30;1.42;;;;;;;;;;5032240;28;20024;-73
2021/06/15 14:35:55;;;;;;;2.90;1.40;;;;;;;;;;5031003;28;20544;-73
2021/06/15 14:38:20;;;;;;;3.60;1.45;;;;;;;;;;5031277;28;20490;-73
2021/06/15 14:40:45;;;;;;;2.47;1.38;;;;;;;;;;5036292;28;20020;-72
2021/06/15 14:43:11;;;;;;;3.42;1.30;;;;;;;;;;5036259;28;20527;-73
2021/06/15 14:45:39;;;;;;;3.92;1.40;;;;;;;;;;5036131;28;20023;-73
2021/06/15 14:48:04;;;;;;;4.38;1.45;;;;;;;;;;5035064;28;20120;-73
2021/06/15 14:50:30;;;;;;;3.72;1.65;;;;;;;;;;5039547;28;20096;-75
2021/06/15 14:52:55;;;;;;;7.65;1.70;;;;;;;;;;5038484;28;20013;-73
2021/06/15 14:55:21;;;;;;;3.92;1.63;;;;;;;;;;5046964;28;20028;-73
2021/06/15 14:57:46;;;;;;;10.55;1.75;;;;;;;;;;5040256;28;20075;-73
2021/06/15 15:00:13;;;;;;;3.22;1.60;;;;;;;;;;5052117;28;20028;-72
2021/06/15 15:02:38;;;;;;;2.78;1.83;;;;;;;;;;5039999;28;20096;-72
2021/06/15 15:05:04;;;;;;;4.57;1.40;;;;;;;;;;5045759;28;20101;-74
2021/06/15 15:07:30;;;;;;;9.05;1.55;;;;;;;;;;5049103;28;20013;-73
2021/06/15 15:09:55;;;;;;;5.35;1.60;;;;;;;;;;5037901;28;20032;-76
2021/06/15 15:12:21;;;;;;;3.67;1.60;;;;;;;;;;5054378;28;20462;-73
2021/06/15 15:14:46;;;;;;;3.15;1.40;;;;;;;;;;5048155;28;20060;-76
2021/06/15 15:17:13;;;;;;;5.43;1.77;;;;;;;;;;5046120;28;20401;-75
2021/06/15 15:19:39;;;;;;;5.43;1.85;;;;;;;;;;5040927;28;20014;-74
2021/06/15 15:22:04;;;;;;;4.68;1.77;;;;;;;;;;5051921;28;20024;-73
2021/06/15 15:24:30;;;;;;;4.18;1.65;;;;;;;;;;5040439;28;20067;-73
2021/06/15 15:26:57;;;;;;;9.65;2.50;;;;;;;;;;5046851;28;20053;-73
2021/06/15 15:29:23;;;;;;;4.50;2.15;;;;;;;;;;5047588;28;20021;-72
2021/06/15 15:31:48;;;;;;;9.57;3.40;;;;;;;;;;5039322;28;20371;-72
2021/06/15 15:34:13;;;;;;;10.55;2.30;;;;;;;;;;5051632;28;20017;-73
2021/06/15 15:36:39;;;;;;;2.55;1.65;;;;;;;;;;5041269;28;20032;-73
2021/06/15 15:39:06;;;;;;;5.10;1.90;;;;;;;;;;5043893;28;20022;-74
2021/06/15 15:41:31;;;;;;;16.98;4.53;;;;;;;;;;5048481;28;20100;-74
2021/06/15 15:44:01;;;;;;;5.57;1.75;;;;;;;;;;5038394;28;20101;-74
2021/06/15 15:46:28;;;;;;;6.07;2.08;;;;;;;;;;5050288;28;20033;-74
2021/06/15 15:48:55;;;;;;;4.05;2.05;;;;;;;;;;5043029;28;20520;-75
2021/06/15 15:51:21;;;;;;;30.27;13.43;;;;;;;;;;5041431;28;20033;-72
2021/06/15 15:53:46;;;;;;;21.40;7.38;;;;;;;;;;5050588;28;20018;-74
2021/06/15 15:56:12;;;;;;;8.40;2.20;;;;;;;;;;5038167;28;20059;-74
2021/06/15 15:58:39;;;;;;;13.52;3.38;;;;;;;;;;5048595;28;20078;-73
2021/06/15 16:01:05;;;;;;;9.27;3.33;;;;;;;;;;5042805;28;20082;-73
2021/06/15 16:03:30;;;;;;;4.25;2.40;;;;;;;;;;5039990;28;20116;-75
2021/06/15 16:05:56;;;;;;;6.97;2.40;;;;;;;;;;5051175;28;20389;-74
2021/06/15 16:08:21;;;;;;;5.13;2.50;;;;;;;;;;5036810;28;20021;-72
2021/06/15 16:10:47;;;;;;;5.57;2.58;;;;;;;;;;5041923;28;20009;-75
2021/06/15 16:13:12;;;;;;;3.70;2.20;;;;;;;;;;5032534;28;20041;-73
2021/06/15 16:15:37;;;;;;;4.85;2.00;;;;;;;;;;5026112;28;20010;-73
2021/06/15 16:18:04;;;;;;;4.65;2.22;;;;;;;;;;5043807;28;20068;-73
2021/06/15 16:20:30;;;;;;;6.53;2.03;;;;;;;;;;5037957;28;20064;-74
2021/06/15 16:22:55;;;;;;;10.40;5.22;;;;;;;;;;5021300;28;20084;-74
2021/06/15 16:25:21;;;;;;;9.38;3.53;;;;;;;;;;5045781;28;20057;-71
2021/06/15 16:27:46;;;;;;;8.50;2.28;;;;;;;;;;5034935;28;20064;-74
2021/06/15 16:30:13;;;;;;;10.65;3.03;;;;;;;;;;5048151;28;20055;-73
2021/06/15 16:32:39;;;;;;;5.20;2.90;;;;;;;;;;5037146;28;20025;-74
2021/06/15 16:35:05;;;;;;;13.10;3.92;;;;;;;;;;5044597;28;20100;-73
2021/06/15 16:37:31;;;;;;;5.10;2.60;;;;;;;;;;5048435;28;20025;-73
2021/06/15 16:39:56;;;;;;;6.05;2.40;;;;;;;;;;5045882;28;20550;-73
2021/06/15 16:42:22;;;;;;;8.95;2.80;;;;;;;;;;5048179;28;20029;-71
2021/06/15 16:44:47;;;;;;;8.70;2.45;;;;;;;;;;5037085;28;20014;-73
2021/06/15 16:47:14;;;;;;;9.65;4.07;;;;;;;;;;5030182;28;20024;-74
2021/06/15 16:49:39;;;;;;;10.10;3.20;;;;;;;;;;5025848;28;20022;-73
2021/06/15 16:52:05;;;;;;;14.25;5.60;;;;;;;;;;5029878;28;20033;-74
2021/06/15 16:54:30;;;;;;;6.20;2.60;;;;;;;;;;5029950;28;20441;-73
2021/06/15 16:56:56;;;;;;;7.70;4.13;;;;;;;;;;5049817;28;20061;-74
2021/06/15 16:59:21;;;;;;;10.10;2.75;;;;;;;;;;5040699;28;20032;-71
2021/06/15 17:01:47;;;;;;;7.30;3.88;;;;;;;;;;5038994;28;20477;-71
2021/06/15 17:04:12;;;;;;;5.38;2.00;;;;;;;;;;5026380;28;20025;-74
2021/06/15 17:06:38;;;;;;;12.20;4.22;;;;;;;;;;5047531;28;20017;-74
2021/06/15 17:09:04;;;;;;;5.15;2.30;;;;;;;;;;5037978;28;20025;-74
2021/06/15 17:11:29;;;;;;;6.72;2.60;;;;;;;;;;5032644;28;20533;-74
2021/06/15 17:13:57;;;;;;;8.40;3.47;;;;;;;;;;5025537;28;20075;-73
2021/06/15 17:16:23;;;;;;;10.40;4.00;;;;;;;;;;5044364;28;20477;-72
2021/06/15 17:18:49;;;;;;;7.68;3.47;;;;;;;;;;5036498;28;20083;-74
2021/06/15 17:21:15;;;;;;;7.47;2.88;;;;;;;;;;5046000;28;20067;-75
2021/06/15 17:23:40;;;;;;;9.32;3.30;;;;;;;;;;5042644;28;20029;-76
2021/06/15 17:26:06;;;;;;;73.65;25.25;;;;;;;;;;5038757;28;20033;-75
2021/06/15 17:28:31;;;;;;;6.65;3.45;;;;;;;;;;5030175;28;20026;-75
2021/06/15 17:30:57;;;;;;;7.40;2.70;;;;;;;;;;5024864;28;20030;-74
2021/06/15 17:33:22;;;;;;;19.70;11.48;;;;;;;;;;5031310;28;20039;-74
2021/06/15 17:35:48;;;;;;;7.75;3.58;;;;;;;;;;5035931;28;20025;-75
2021/06/15 17:38:14;;;;;;;5.20;2.35;;;;;;;;;;5026447;28;20398;-75
2021/06/15 17:40:40;;;;;;;6.50;2.50;;;;;;;;;;5048076;28;20021;-76
2021/06/15 17:43:06;;;;;;;8.50;2.55;;;;;;;;;;5036311;28;20028;-74
2021/06/15 17:45:33;;;;;;;12.88;2.20;;;;;;;;;;5044295;28;20025;-74
2021/06/15 17:47:58;;;;;;;6.90;2.20;;;;;;;;;;5044734;28;20075;-74
2021/06/15 17:50:24;;;;;;;7.63;2.10;;;;;;;;;;5037078;28;20013;-71
2021/06/15 17:52:50;;;;;;;10.57;2.72;;;;;;;;;;5037536;28;20382;-72
2021/06/15 17:55:15;;;;;;;8.00;2.25;;;;;;;;;;5032485;28;20026;-70
2021/06/15 17:57:42;;;;;;;5.75;2.90;;;;;;;;;;5051518;28;20108;-70
2021/06/15 18:00:13;;;;;;;7.88;2.80;;;;;;;;;;5020154;28;20505;-70
2021/06/15 18:02:39;;;;;;;9.25;2.30;;;;;;;;;;5013133;28;20087;-71
2021/06/15 18:05:09;;;;;;;8.57;2.35;;;;;;;;;;5012885;28;20022;-69
2021/06/15 18:07:40;;;;;;;4.78;2.40;;;;;;;;;;5013033;28;20018;-71
2021/06/15 18:10:07;;;;;;;8.18;2.70;;;;;;;;;;5013131;28;20022;-68
2021/06/15 18:12:32;;;;;;;8.60;2.80;;;;;;;;;;5012766;28;20171;-68
2021/06/15 18:14:58;;;;;;;9.27;2.75;;;;;;;;;;5011656;28;20064;-68
2021/06/15 18:17:23;;;;;;;14.60;2.75;;;;;;;;;;5012738;28;20049;-68
2021/06/15 18:19:49;;;;;;;15.75;2.60;;;;;;;;;;5012881;28;20493;-68
2021/06/15 18:22:14;;;;;;;6.45;2.58;;;;;;;;;;5012986;28;20108;-69
2021/06/15 18:24:40;;;;;;;4.70;2.53;;;;;;;;;;5012999;28;20097;-68
2021/06/15 18:27:06;;;;;;;8.40;2.85;;;;;;;;;;5011422;28;20018;-68
2021/06/15 18:29:31;;;;;;;10.45;3.33;;;;;;;;;;5012682;28;20033;-69
2021/06/15 18:31:57;;;;;;;13.88;3.20;;;;;;;;;;5012746;28;20379;-69
2021/06/15 18:34:23;;;;;;;17.60;3.63;;;;;;;;;;5012801;28;20671;-70
2021/06/15 18:36:48;;;;;;;11.75;3.65;;;;;;;;;;5012756;28;20022;-72
2021/06/15 18:39:16;;;;;;;11.45;2.90;;;;;;;;;;5011362;28;20052;-70
2021/06/15 18:41:42;;;;;;;11.65;3.22;;;;;;;;;;4995081;28;20018;-69
2021/06/15 18:44:07;;;;;;;14.38;3.63;;;;;;;;;;5012606;28;20026;-69
2021/06/15 18:46:33;;;;;;;12.82;3.30;;;;;;;;;;5011586;28;20490;-70
2021/06/15 18:49:00;;;;;;;9.00;2.85;;;;;;;;;;5012671;28;20410;-70
2021/06/15 18:51:27;;;;;;;8.05;2.97;;;;;;;;;;5011317;28;20542;-71
2021/06/15 18:53:52;;;;;;;18.58;3.30;;;;;;;;;;5012699;28;20010;-71
2021/06/15 18:56:18;;;;;;;16.50;3.35;;;;;;;;;;5011638;28;20056;-71
2021/06/15 18:58:44;;;;;;;12.65;3.28;;;;;;;;;;4994786;28;20038;-70
2021/06/15 19:01:09;;;;;;;10.57;4.43;;;;;;;;;;5011246;28;20041;-72
2021/06/15 19:03:35;;;;;;;12.80;3.63;;;;;;;;;;5012368;28;20104;-71
2021/06/15 19:06:00;;;;;;;8.38;2.88;;;;;;;;;;5012541;28;20029;-71
2021/06/15 19:08:26;;;;;;;11.38;3.47;;;;;;;;;;5012358;28;20079;-71
2021/06/15 19:10:51;;;;;;;10.25;4.13;;;;;;;;;;5012480;28;20029;-71
2021/06/15 19:13:17;;;;;;;16.13;3.40;;;;;;;;;;5011114;28;20014;-71
2021/06/15 19:15:43;;;;;;;10.95;3.25;;;;;;;;;;5012087;28;20427;-71
2021/06/15 19:18:09;;;;;;;15.07;3.55;;;;;;;;;;5010843;28;20069;-71
2021/06/15 19:20:34;;;;;;;8.40;2.88;;;;;;;;;;5011272;28;20022;-70
2021/06/15 19:23:00;;;;;;;11.15;3.60;;;;;;;;;;5012478;28;20022;-71
2021/06/15 19:25:26;;;;;;;11.70;3.97;;;;;;;;;;5012802;28;20466;-70
2021/06/15 19:27:52;;;;;;;16.65;5.95;;;;;;;;;;4998329;28;20024;-71
2021/06/15 19:30:19;;;;;;;14.82;6.22;;;;;;;;;;5013871;28;20125;-71
2021/06/15 19:32:44;;;;;;;15.15;6.00;;;;;;;;;;5015720;28;20386;-72
2021/06/15 19:35:10;;;;;;;16.02;6.70;;;;;;;;;;5015684;28;20069;-72
2021/06/15 19:37:36;;;;;;;12.32;6.15;;;;;;;;;;5015303;28;20061;-71
2021/06/15 19:40:01;;;;;;;17.55;7.85;;;;;;;;;;5015546;28;20026;-71
2021/06/15 19:42:27;;;;;;;17.02;8.30;;;;;;;;;;5015395;28;20072;-71
2021/06/15 19:44:52;;;;;;;12.23;6.38;;;;;;;;;;5014245;28;20033;-71
2021/06/15 19:47:18;;;;;;;14.73;6.72;;;;;;;;;;5014264;28;20053;-72
2021/06/15 19:49:43;;;;;;;13.68;6.43;;;;;;;;;;5015235;28;20104;-71
2021/06/15 19:52:11;;;;;;;13.32;5.03;;;;;;;;;;5014134;28;20079;-72
2021/06/15 19:54:40;;;;;;;11.15;6.22;;;;;;;;;;5015227;28;20498;-72
2021/06/15 19:57:05;;;;;;;8.52;5.35;;;;;;;;;;5033839;28;20381;-72
2021/06/15 19:59:31;;;;;;;10.82;4.97;;;;;;;;;;5034658;28;20030;-72
2021/06/15 20:01:57;;;;;;;5.72;3.70;;;;;;;;;;5034937;28;20539;-72
2021/06/15 20:04:23;;;;;;;9.55;4.50;;;;;;;;;;5034974;28;20025;-72
2021/06/15 20:06:51;;;;;;;8.88;3.88;;;;;;;;;;5034779;28;20014;-72
2021/06/15 20:09:16;;;;;;;6.53;3.28;;;;;;;;;;5034806;28;20025;-72
2021/06/15 20:11:42;;;;;;;5.20;2.88;;;;;;;;;;5034636;28;20015;-72
2021/06/15 20:14:07;;;;;;;5.75;2.90;;;;;;;;;;5034651;28;20053;-72
2021/06/15 20:16:33;;;;;;;6.70;2.70;;;;;;;;;;5034317;28;20144;-71
2021/06/15 20:18:58;;;;;;;4.22;2.90;;;;;;;;;;5033129;28;20076;-72
2021/06/15 20:21:25;;;;;;;12.07;3.35;;;;;;;;;;5034619;28;20025;-71
2021/06/15 20:23:50;;;;;;;10.30;2.90;;;;;;;;;;5034421;28;20108;-71
2021/06/15 20:26:16;;;;;;;7.45;2.97;;;;;;;;;;5034523;28;20193;-71
2021/06/15 20:28:42;;;;;;;5.22;2.95;;;;;;;;;;5034547;28;20109;-71
2021/06/15 20:31:08;;;;;;;6.53;2.67;;;;;;;;;;5034359;28;20072;-71
2021/06/15 20:33:33;;;;;;;11.55;3.15;;;;;;;;;;5034523;28;20025;-71
2021/06/15 20:35:59;;;;;;;7.03;3.22;;;;;;;;;;5033123;28;20025;-72
2021/06/15 20:38:25;;;;;;;6.60;3.15;;;;;;;;;;5033313;28;20059;-72
2021/06/15 20:40:50;;;;;;;7.00;3.45;;;;;;;;;;5032958;28;20158;-72
2021/06/15 20:43:16;;;;;;;8.65;3.22;;;;;;;;;;5034178;28;20541;-71
2021/06/15 20:45:42;;;;;;;8.40;3.00;;;;;;;;;;5032901;28;20474;-72
2021/06/15 20:48:07;;;;;;;7.57;3.00;;;;;;;;;;5032953;28;20029;-72
2021/06/15 20:50:33;;;;;;;5.20;2.58;;;;;;;;;;5033416;28;20112;-71
2021/06/15 20:52:58;;;;;;;4.10;2.85;;;;;;;;;;5033616;28;20044;-72
2021/06/15 20:55:23;;;;;;;6.78;3.33;;;;;;;;;;5032398;28;20055;-72
2021/06/15 20:57:49;;;;;;;6.70;3.20;;;;;;;;;;5033527;28;20074;-72